sensor_id;sensor_type;location;lat;lon;timestamp;pressure;altitude;pressure_sealevel;temperature
24160;BMP280;62385;41.594;23.808;2022-09-09T00:00:41;95878.16;;;16.59
24160;BMP280;62385;41.594;23.808;2022-09-09T00:03:16;95875.25;;;16.72
24160;BMP280;62385;41.594;23.808;2022-09-09T00:11:29;95873.56;;;16.52
24160;BMP280;62385;41.594;23.808;2022-09-09T00:14:00;95867.47;;;16.51
24160;BMP280;62385;41.594;23.808;2022-09-09T00:16:32;95868.38;;;16.54
24160;BMP280;62385;41.594;23.808;2022-09-09T00:19:07;95867.47;;;16.59
24160;BMP280;62385;41.594;23.808;2022-09-09T00:21:39;95864.72;;;16.34
24160;BMP280;62385;41.594;23.808;2022-09-09T00:24:26;95859.25;;;16.17
24160;BMP280;62385;41.594;23.808;2022-09-09T00:29:58;95874.91;;;16.68
24160;BMP280;62385;41.594;23.808;2022-09-09T00:32:28;95875.38;;;16.82
24160;BMP280;62385;41.594;23.808;2022-09-09T00:34:56;95868.00;;;16.57
24160;BMP280;62385;41.594;23.808;2022-09-09T00:37:24;95863.44;;;16.43
24160;BMP280;62385;41.594;23.808;2022-09-09T00:39:51;95862.41;;;16.30
24160;BMP280;62385;41.594;23.808;2022-09-09T00:47:53;95856.44;;;15.99
24160;BMP280;62385;41.594;23.808;2022-09-09T00:56:08;95860.25;;;16.44
24160;BMP280;62385;41.594;23.808;2022-09-09T00:58:35;95852.94;;;16.45
24160;BMP280;62385;41.594;23.808;2022-09-09T01:01:04;95864.31;;;16.45
24160;BMP280;62385;41.594;23.808;2022-09-09T01:03:38;95871.06;;;16.54
24160;BMP280;62385;41.594;23.808;2022-09-09T01:06:22;95879.13;;;16.39
24160;BMP280;62385;41.594;23.808;2022-09-09T01:17:11;95883.75;;;16.38
24160;BMP280;62385;41.594;23.808;2022-09-09T01:27:36;95881.47;;;16.19
24160;BMP280;62385;41.594;23.808;2022-09-09T01:30:10;95876.16;;;16.11
24160;BMP280;62385;41.594;23.808;2022-09-09T01:32:43;95865.81;;;16.08
24160;BMP280;62385;41.594;23.808;2022-09-09T01:35:27;95872.06;;;16.10
24160;BMP280;62385;41.594;23.808;2022-09-09T01:37:56;95859.78;;;16.23
24160;BMP280;62385;41.594;23.808;2022-09-09T01:40:22;95865.31;;;16.09
24160;BMP280;62385;41.594;23.808;2022-09-09T01:42:48;95859.97;;;16.17
24160;BMP280;62385;41.594;23.808;2022-09-09T01:45:14;95862.47;;;16.07
24160;BMP280;62385;41.594;23.808;2022-09-09T01:47:41;95862.09;;;16.03
24160;BMP280;62385;41.594;23.808;2022-09-09T01:50:29;95866.38;;;15.99
24160;BMP280;62385;41.594;23.808;2022-09-09T01:52:59;95870.47;;;16.07
24160;BMP280;62385;41.594;23.808;2022-09-09T01:55:33;95866.75;;;15.87
24160;BMP280;62385;41.594;23.808;2022-09-09T01:58:38;95859.66;;;15.51
24160;BMP280;62385;41.594;23.808;2022-09-09T02:01:45;95860.19;;;15.65
24160;BMP280;62385;41.594;23.808;2022-09-09T02:06:48;95853.41;;;15.80
24160;BMP280;62385;41.594;23.808;2022-09-09T02:09:24;95851.66;;;15.82
24160;BMP280;62385;41.594;23.808;2022-09-09T02:12:00;95856.09;;;15.87
24160;BMP280;62385;41.594;23.808;2022-09-09T02:14:42;95863.22;;;15.77
24160;BMP280;62385;41.594;23.808;2022-09-09T02:17:15;95862.31;;;15.74
24160;BMP280;62385;41.594;23.808;2022-09-09T02:20:13;95866.06;;;15.64
24160;BMP280;62385;41.594;23.808;2022-09-09T02:22:50;95862.66;;;15.86
24160;BMP280;62385;41.594;23.808;2022-09-09T02:25:20;95856.47;;;15.84
24160;BMP280;62385;41.594;23.808;2022-09-09T02:27:50;95865.00;;;15.67
24160;BMP280;62385;41.594;23.808;2022-09-09T02:30:17;95867.66;;;15.74
24160;BMP280;62385;41.594;23.808;2022-09-09T02:32:52;95860.00;;;15.79
24160;BMP280;62385;41.594;23.808;2022-09-09T02:35:27;95865.53;;;15.73
24160;BMP280;62385;41.594;23.808;2022-09-09T02:37:55;95850.59;;;15.70
24160;BMP280;62385;41.594;23.808;2022-09-09T02:40:22;95857.34;;;15.63
24160;BMP280;62385;41.594;23.808;2022-09-09T02:42:55;95868.03;;;15.71
24160;BMP280;62385;41.594;23.808;2022-09-09T02:45:24;95855.94;;;15.70
24160;BMP280;62385;41.594;23.808;2022-09-09T02:48:07;95859.69;;;15.67
24160;BMP280;62385;41.594;23.808;2022-09-09T02:53:50;95863.41;;;15.64
24160;BMP280;62385;41.594;23.808;2022-09-09T02:56:25;95858.97;;;15.51
24160;BMP280;62385;41.594;23.808;2022-09-09T02:58:54;95862.69;;;15.63
24160;BMP280;62385;41.594;23.808;2022-09-09T03:01:20;95863.22;;;15.69
24160;BMP280;62385;41.594;23.808;2022-09-09T03:03:46;95863.75;;;15.52
24160;BMP280;62385;41.594;23.808;2022-09-09T03:06:14;95859.50;;;15.57
24160;BMP280;62385;41.594;23.808;2022-09-09T03:08:43;95876.53;;;15.46
24160;BMP280;62385;41.594;23.808;2022-09-09T03:11:10;95868.56;;;15.54
24160;BMP280;62385;41.594;23.808;2022-09-09T03:13:36;95872.28;;;15.59
24160;BMP280;62385;41.594;23.808;2022-09-09T03:16:03;95865.91;;;15.39
24160;BMP280;62385;41.594;23.808;2022-09-09T03:18:33;95858.03;;;15.25
24160;BMP280;62385;41.594;23.808;2022-09-09T03:21:00;95852.31;;;14.98
24160;BMP280;62385;41.594;23.808;2022-09-09T03:23:27;95853.41;;;15.03
24160;BMP280;62385;41.594;23.808;2022-09-09T03:25:53;95849.34;;;15.32
24160;BMP280;62385;41.594;23.808;2022-09-09T03:28:30;95849.00;;;15.51
24160;BMP280;62385;41.594;23.808;2022-09-09T03:31:01;95855.22;;;15.46
24160;BMP280;62385;41.594;23.808;2022-09-09T03:33:31;95854.69;;;15.32
24160;BMP280;62385;41.594;23.808;2022-09-09T03:35:57;95850.06;;;15.33
24160;BMP280;62385;41.594;23.808;2022-09-09T03:38:24;95841.88;;;15.23
24160;BMP280;62385;41.594;23.808;2022-09-09T03:40:54;95849.88;;;15.46
24160;BMP280;62385;41.594;23.808;2022-09-09T03:43:25;95851.47;;;15.19
24160;BMP280;62385;41.594;23.808;2022-09-09T03:45:52;95844.50;;;15.00
24160;BMP280;62385;41.594;23.808;2022-09-09T03:48:18;95850.94;;;15.20
24160;BMP280;62385;41.594;23.808;2022-09-09T03:50:52;95851.63;;;15.28
24160;BMP280;62385;41.594;23.808;2022-09-09T03:53:21;95848.25;;;15.05
24160;BMP280;62385;41.594;23.808;2022-09-09T03:55:48;95859.75;;;14.92
24160;BMP280;62385;41.594;23.808;2022-09-09T03:58:16;95855.84;;;15.01
24160;BMP280;62385;41.594;23.808;2022-09-09T04:00:53;95859.97;;;15.09
24160;BMP280;62385;41.594;23.808;2022-09-09T04:03:19;95855.75;;;15.22
24160;BMP280;62385;41.594;23.808;2022-09-09T04:05:45;95867.50;;;15.34
24160;BMP280;62385;41.594;23.808;2022-09-09T04:08:14;95865.53;;;15.42
24160;BMP280;62385;41.594;23.808;2022-09-09T04:10:40;95862.69;;;15.40
24160;BMP280;62385;41.594;23.808;2022-09-09T04:13:07;95877.78;;;15.38
24160;BMP280;62385;41.594;23.808;2022-09-09T04:15:33;95868.88;;;15.35
24160;BMP280;62385;41.594;23.808;2022-09-09T04:18:00;95862.28;;;15.28
24160;BMP280;62385;41.594;23.808;2022-09-09T04:20:26;95865.50;;;15.34
24160;BMP280;62385;41.594;23.808;2022-09-09T04:22:52;95878.66;;;15.25
24160;BMP280;62385;41.594;23.808;2022-09-09T04:25:17;95879.19;;;15.31
24160;BMP280;62385;41.594;23.808;2022-09-09T04:27:43;95884.00;;;15.40
24160;BMP280;62385;41.594;23.808;2022-09-09T04:30:09;95879.03;;;15.44
24160;BMP280;62385;41.594;23.808;2022-09-09T04:32:36;95873.88;;;15.46
24160;BMP280;62385;41.594;23.808;2022-09-09T04:35:02;95879.56;;;15.50
24160;BMP280;62385;41.594;23.808;2022-09-09T04:37:29;95876.75;;;15.56
24160;BMP280;62385;41.594;23.808;2022-09-09T04:39:55;95871.25;;;15.62
24160;BMP280;62385;41.594;23.808;2022-09-09T04:42:21;95879.25;;;15.62
24160;BMP280;62385;41.594;23.808;2022-09-09T04:44:46;95877.97;;;15.78
24160;BMP280;62385;41.594;23.808;2022-09-09T04:47:12;95879.78;;;15.68
24160;BMP280;62385;41.594;23.808;2022-09-09T04:49:39;95879.22;;;15.69
24160;BMP280;62385;41.594;23.808;2022-09-09T04:52:05;95887.22;;;15.77
24160;BMP280;62385;41.594;23.808;2022-09-09T04:54:32;95881.69;;;15.90
24160;BMP280;62385;41.594;23.808;2022-09-09T04:56:58;95891.63;;;16.13
24160;BMP280;62385;41.594;23.808;2022-09-09T04:59:24;95880.94;;;16.13
24160;BMP280;62385;41.594;23.808;2022-09-09T05:01:53;95885.56;;;16.20
24160;BMP280;62385;41.594;23.808;2022-09-09T05:04:21;95886.47;;;16.07
24160;BMP280;62385;41.594;23.808;2022-09-09T05:06:46;95884.88;;;16.12
24160;BMP280;62385;41.594;23.808;2022-09-09T05:09:12;95888.59;;;16.09
24160;BMP280;62385;41.594;23.808;2022-09-09T05:11:56;95881.13;;;16.07
24160;BMP280;62385;41.594;23.808;2022-09-09T05:14:30;95885.25;;;16.16
24160;BMP280;62385;41.594;23.808;2022-09-09T05:16:59;95875.25;;;16.17
24160;BMP280;62385;41.594;23.808;2022-09-09T05:19:24;95875.75;;;16.30
24160;BMP280;62385;41.594;23.808;2022-09-09T05:21:51;95880.69;;;16.42
24160;BMP280;62385;41.594;23.808;2022-09-09T05:24:22;95877.34;;;16.41
24160;BMP280;62385;41.594;23.808;2022-09-09T05:26:53;95880.69;;;16.42
24160;BMP280;62385;41.594;23.808;2022-09-09T05:29:19;95874.84;;;16.35
24160;BMP280;62385;41.594;23.808;2022-09-09T05:31:45;95875.19;;;16.47
24160;BMP280;62385;41.594;23.808;2022-09-09T05:34:14;95872.69;;;16.49
24160;BMP280;62385;41.594;23.808;2022-09-09T05:36:40;95878.38;;;16.53
24160;BMP280;62385;41.594;23.808;2022-09-09T05:39:06;95887.19;;;16.71
24160;BMP280;62385;41.594;23.808;2022-09-09T05:41:33;95880.25;;;16.68
24160;BMP280;62385;41.594;23.808;2022-09-09T05:44:01;95883.13;;;16.70
24160;BMP280;62385;41.594;23.808;2022-09-09T05:46:27;95883.56;;;16.84
24160;BMP280;62385;41.594;23.808;2022-09-09T05:48:54;95892.06;;;16.90
24160;BMP280;62385;41.594;23.808;2022-09-09T05:51:27;95886.94;;;16.92
24160;BMP280;62385;41.594;23.808;2022-09-09T05:53:56;95880.66;;;16.97
24160;BMP280;62385;41.594;23.808;2022-09-09T05:56:28;95896.63;;;17.05
24160;BMP280;62385;41.594;23.808;2022-09-09T05:58:55;95892.31;;;17.17
24160;BMP280;62385;41.594;23.808;2022-09-09T06:01:40;95885.97;;;17.30
24160;BMP280;62385;41.594;23.808;2022-09-09T06:04:07;95882.25;;;17.26
24160;BMP280;62385;41.594;23.808;2022-09-09T06:06:36;95869.91;;;17.30
24160;BMP280;62385;41.594;23.808;2022-09-09T06:09:04;95870.81;;;17.33
24160;BMP280;62385;41.594;23.808;2022-09-09T06:11:38;95855.09;;;17.37
24160;BMP280;62385;41.594;23.808;2022-09-09T06:14:04;95856.31;;;17.44
24160;BMP280;62385;41.594;23.808;2022-09-09T06:16:32;95848.22;;;17.51
24160;BMP280;62385;41.594;23.808;2022-09-09T06:18:58;95856.00;;;17.57
24160;BMP280;62385;41.594;23.808;2022-09-09T06:21:31;95860.09;;;17.58
24160;BMP280;62385;41.594;23.808;2022-09-09T06:24:00;95862.16;;;17.67
24160;BMP280;62385;41.594;23.808;2022-09-09T06:26:31;95872.78;;;17.57
24160;BMP280;62385;41.594;23.808;2022-09-09T06:28:57;95870.94;;;17.60
24160;BMP280;62385;41.594;23.808;2022-09-09T06:31:25;95868.13;;;17.75
24160;BMP280;62385;41.594;23.808;2022-09-09T06:33:53;95862.78;;;17.75
24160;BMP280;62385;41.594;23.808;2022-09-09T06:36:24;95864.16;;;17.84
24160;BMP280;62385;41.594;23.808;2022-09-09T06:38:51;95862.88;;;17.85
24160;BMP280;62385;41.594;23.808;2022-09-09T06:41:19;95868.88;;;17.93
24160;BMP280;62385;41.594;23.808;2022-09-09T06:43:46;95875.25;;;17.98
24160;BMP280;62385;41.594;23.808;2022-09-09T06:46:14;95865.66;;;17.95
24160;BMP280;62385;41.594;23.808;2022-09-09T06:48:41;95873.38;;;18.08
24160;BMP280;62385;41.594;23.808;2022-09-09T06:51:11;95878.25;;;18.19
24160;BMP280;62385;41.594;23.808;2022-09-09T06:53:58;95870.75;;;18.35
24160;BMP280;62385;41.594;23.808;2022-09-09T06:56:30;95868.03;;;18.53
24160;BMP280;62385;41.594;23.808;2022-09-09T06:59:15;95869.03;;;18.57
24160;BMP280;62385;41.594;23.808;2022-09-09T07:01:42;95862.28;;;18.56
24160;BMP280;62385;41.594;23.808;2022-09-09T07:04:13;95854.31;;;18.66
24160;BMP280;62385;41.594;23.808;2022-09-09T07:06:43;95848.69;;;18.72
24160;BMP280;62385;41.594;23.808;2022-09-09T07:09:13;95852.66;;;18.80
24160;BMP280;62385;41.594;23.808;2022-09-09T07:11:57;95863.44;;;18.90
24160;BMP280;62385;41.594;23.808;2022-09-09T07:14:24;95853.59;;;18.93
24160;BMP280;62385;41.594;23.808;2022-09-09T07:16:57;95853.28;;;18.89
24160;BMP280;62385;41.594;23.808;2022-09-09T07:19:23;95859.91;;;18.88
24160;BMP280;62385;41.594;23.808;2022-09-09T07:21:51;95856.88;;;19.11
24160;BMP280;62385;41.594;23.808;2022-09-09T07:24:18;95850.28;;;19.12
24160;BMP280;62385;41.594;23.808;2022-09-09T07:26:45;95858.94;;;19.29
24160;BMP280;62385;41.594;23.808;2022-09-09T07:29:11;95860.75;;;19.27
24160;BMP280;62385;41.594;23.808;2022-09-09T07:31:42;95850.03;;;19.27
24160;BMP280;62385;41.594;23.808;2022-09-09T07:34:12;95860.53;;;19.42
24160;BMP280;62385;41.594;23.808;2022-09-09T07:36:39;95859.66;;;19.40
24160;BMP280;62385;41.594;23.808;2022-09-09T07:39:09;95849.94;;;19.44
24160;BMP280;62385;41.594;23.808;2022-09-09T07:41:40;95852.25;;;19.67
24160;BMP280;62385;41.594;23.808;2022-09-09T07:44:28;95855.88;;;19.72
24160;BMP280;62385;41.594;23.808;2022-09-09T07:47:02;95853.22;;;19.72
24160;BMP280;62385;41.594;23.808;2022-09-09T07:49:33;95853.53;;;19.76
24160;BMP280;62385;41.594;23.808;2022-09-09T07:52:01;95850.97;;;19.88
24160;BMP280;62385;41.594;23.808;2022-09-09T07:54:28;95859.16;;;19.90
24160;BMP280;62385;41.594;23.808;2022-09-09T07:56:54;95856.34;;;19.98
24160;BMP280;62385;41.594;23.808;2022-09-09T07:59:23;95857.03;;;20.08
24160;BMP280;62385;41.594;23.808;2022-09-09T08:01:52;95856.03;;;20.23
24160;BMP280;62385;41.594;23.808;2022-09-09T08:04:24;95849.09;;;20.29
24160;BMP280;62385;41.594;23.808;2022-09-09T08:06:54;95841.47;;;20.35
24160;BMP280;62385;41.594;23.808;2022-09-09T08:09:22;95837.88;;;20.52
24160;BMP280;62385;41.594;23.808;2022-09-09T08:11:51;95830.94;;;20.59
24160;BMP280;62385;41.594;23.808;2022-09-09T08:14:16;95818.94;;;20.50
24160;BMP280;62385;41.594;23.808;2022-09-09T08:16:46;95828.31;;;20.40
24160;BMP280;62385;41.594;23.808;2022-09-09T08:19:15;95822.78;;;20.47
24160;BMP280;62385;41.594;23.808;2022-09-09T08:21:59;95817.59;;;20.71
24160;BMP280;62385;41.594;23.808;2022-09-09T08:24:27;95819.75;;;20.94
24160;BMP280;62385;41.594;23.808;2022-09-09T08:26:53;95813.28;;;20.87
24160;BMP280;62385;41.594;23.808;2022-09-09T08:29:22;95806.56;;;20.98
24160;BMP280;62385;41.594;23.808;2022-09-09T08:31:50;95813.13;;;21.16
24160;BMP280;62385;41.594;23.808;2022-09-09T08:34:17;95813.56;;;21.13
24160;BMP280;62385;41.594;23.808;2022-09-09T08:36:48;95811.97;;;21.19
24160;BMP280;62385;41.594;23.808;2022-09-09T08:39:15;95815.41;;;21.10
24160;BMP280;62385;41.594;23.808;2022-09-09T08:52:13;95802.53;;;21.52
24160;BMP280;62385;41.594;23.808;2022-09-09T08:57:45;95799.53;;;21.91
24160;BMP280;62385;41.594;23.808;2022-09-09T09:00:12;95799.59;;;22.14
24160;BMP280;62385;41.594;23.808;2022-09-09T09:02:48;95802.97;;;22.03
24160;BMP280;62385;41.594;23.808;2022-09-09T09:19:13;95768.91;;;22.55
24160;BMP280;62385;41.594;23.808;2022-09-09T09:21:43;95772.97;;;22.79
24160;BMP280;62385;41.594;23.808;2022-09-09T09:24:18;95765.34;;;22.99
24160;BMP280;62385;41.594;23.808;2022-09-09T09:26:45;95766.06;;;23.25
24160;BMP280;62385;41.594;23.808;2022-09-09T09:29:13;95767.72;;;23.18
24160;BMP280;62385;41.594;23.808;2022-09-09T09:31:50;95762.56;;;23.23
24160;BMP280;62385;41.594;23.808;2022-09-09T09:34:16;95758.97;;;23.44
24160;BMP280;62385;41.594;23.808;2022-09-09T09:36:52;95762.59;;;23.48
24160;BMP280;62385;41.594;23.808;2022-09-09T09:39:27;95765.88;;;23.72
24160;BMP280;62385;41.594;23.808;2022-09-09T09:41:57;95756.28;;;23.83
24160;BMP280;62385;41.594;23.808;2022-09-09T09:46:50;95749.34;;;24.05
24160;BMP280;62385;41.594;23.808;2022-09-09T09:49:16;95741.66;;;24.14
24160;BMP280;62385;41.594;23.808;2022-09-09T09:51:43;95741.22;;;24.33
24160;BMP280;62385;41.594;23.808;2022-09-09T09:54:26;95735.22;;;24.21
24160;BMP280;62385;41.594;23.808;2022-09-09T09:56:56;95732.31;;;24.03
24160;BMP280;62385;41.594;23.808;2022-09-09T09:59:34;95727.94;;;24.23
24160;BMP280;62385;41.594;23.808;2022-09-09T10:02:13;95727.41;;;24.41
24160;BMP280;62385;41.594;23.808;2022-09-09T10:04:41;95728.91;;;25.01
24160;BMP280;62385;41.594;23.808;2022-09-09T10:07:11;95735.81;;;25.04
24160;BMP280;62385;41.594;23.808;2022-09-09T10:09:36;95734.25;;;24.99
24160;BMP280;62385;41.594;23.808;2022-09-09T10:15:02;95729.44;;;24.98
24160;BMP280;62385;41.594;23.808;2022-09-09T10:22:35;95736.81;;;25.11
24160;BMP280;62385;41.594;23.808;2022-09-09T10:25:53;95740.09;;;25.39
24160;BMP280;62385;41.594;23.808;2022-09-09T10:33:37;95716.00;;;25.45
24160;BMP280;62385;41.594;23.808;2022-09-09T10:36:21;95719.34;;;25.75
24160;BMP280;62385;41.594;23.808;2022-09-09T10:39:20;95716.97;;;25.68
24160;BMP280;62385;41.594;23.808;2022-09-09T10:44:42;95711.88;;;26.07
24160;BMP280;62385;41.594;23.808;2022-09-09T10:47:41;95708.38;;;26.05
24160;BMP280;62385;41.594;23.808;2022-09-09T10:55:45;95709.84;;;26.24
24160;BMP280;62385;41.594;23.808;2022-09-09T10:58:41;95704.41;;;26.40
24160;BMP280;62385;41.594;23.808;2022-09-09T11:03:44;95690.38;;;26.81
24160;BMP280;62385;41.594;23.808;2022-09-09T11:06:23;95693.50;;;26.22
24160;BMP280;62385;41.594;23.808;2022-09-09T11:08:57;95693.91;;;26.32
24160;BMP280;62385;41.594;23.808;2022-09-09T11:11:42;95687.78;;;26.31
24160;BMP280;62385;41.594;23.808;2022-09-09T11:17:56;95676.06;;;26.79
24160;BMP280;62385;41.594;23.808;2022-09-09T11:20:25;95669.59;;;27.06
24160;BMP280;62385;41.594;23.808;2022-09-09T11:27:58;95669.75;;;26.56
24160;BMP280;62385;41.594;23.808;2022-09-09T11:36:21;95657.72;;;26.97
24160;BMP280;62385;41.594;23.808;2022-09-09T11:38:59;95651.66;;;27.36
24160;BMP280;62385;41.594;23.808;2022-09-09T11:41:34;95635.91;;;27.13
24160;BMP280;62385;41.594;23.808;2022-09-09T11:44:10;95641.28;;;27.31
24160;BMP280;62385;41.594;23.808;2022-09-09T11:46:38;95648.00;;;27.28
24160;BMP280;62385;41.594;23.808;2022-09-09T11:49:06;95634.38;;;27.08
24160;BMP280;62385;41.594;23.808;2022-09-09T11:51:33;95635.47;;;27.01
24160;BMP280;62385;41.594;23.808;2022-09-09T11:56:32;95636.00;;;27.55
24160;BMP280;62385;41.594;23.808;2022-09-09T11:59:24;95634.06;;;27.37
24160;BMP280;62385;41.594;23.808;2022-09-09T12:01:57;95629.31;;;27.58
24160;BMP280;62385;41.594;23.808;2022-09-09T12:09:50;95614.28;;;27.35
24160;BMP280;62385;41.594;23.808;2022-09-09T12:12:21;95619.97;;;28.05
24160;BMP280;62385;41.594;23.808;2022-09-09T12:15:16;95612.19;;;28.39
24160;BMP280;62385;41.594;23.808;2022-09-09T12:17:45;95609.00;;;27.81
24160;BMP280;62385;41.594;23.808;2022-09-09T12:28:19;95604.28;;;27.61
24160;BMP280;62385;41.594;23.808;2022-09-09T12:33:35;95610.22;;;26.96
24160;BMP280;62385;41.594;23.808;2022-09-09T12:36:03;95603.75;;;27.45
24160;BMP280;62385;41.594;23.808;2022-09-09T12:38:36;95595.72;;;27.09
24160;BMP280;62385;41.594;23.808;2022-09-09T12:41:02;95589.47;;;27.05
24160;BMP280;62385;41.594;23.808;2022-09-09T12:43:28;95596.72;;;27.38
24160;BMP280;62385;41.594;23.808;2022-09-09T12:46:07;95595.53;;;27.23
24160;BMP280;62385;41.594;23.808;2022-09-09T12:48:39;95590.84;;;28.07
24160;BMP280;62385;41.594;23.808;2022-09-09T12:51:24;95585.44;;;28.09
24160;BMP280;62385;41.594;23.808;2022-09-09T12:53:51;95586.50;;;28.44
24160;BMP280;62385;41.594;23.808;2022-09-09T12:56:25;95577.97;;;28.32
24160;BMP280;62385;41.594;23.808;2022-09-09T12:58:55;95573.47;;;28.19
24160;BMP280;62385;41.594;23.808;2022-09-09T13:03:51;95564.97;;;27.84
24160;BMP280;62385;41.594;23.808;2022-09-09T13:06:21;95562.78;;;28.25
24160;BMP280;62385;41.594;23.808;2022-09-09T13:08:49;95561.28;;;28.20
24160;BMP280;62385;41.594;23.808;2022-09-09T13:13:55;95552.16;;;27.67
24160;BMP280;62385;41.594;23.808;2022-09-09T13:16:33;95542.72;;;27.68
24160;BMP280;62385;41.594;23.808;2022-09-09T13:19:01;95547.13;;;27.57
24160;BMP280;62385;41.594;23.808;2022-09-09T13:21:32;95550.47;;;27.78
24160;BMP280;62385;41.594;23.808;2022-09-09T13:23:58;95547.63;;;28.18
24160;BMP280;62385;41.594;23.808;2022-09-09T13:26:28;95540.97;;;28.47
24160;BMP280;62385;41.594;23.808;2022-09-09T13:29:08;95545.28;;;28.54
24160;BMP280;62385;41.594;23.808;2022-09-09T13:31:40;95545.91;;;29.57
24160;BMP280;62385;41.594;23.808;2022-09-09T13:34:32;95551.47;;;29.33
24160;BMP280;62385;41.594;23.808;2022-09-09T13:37:05;95542.75;;;28.86
24160;BMP280;62385;41.594;23.808;2022-09-09T13:39:36;95539.59;;;28.00
24160;BMP280;62385;41.594;23.808;2022-09-09T13:42:03;95544.31;;;28.93
24160;BMP280;62385;41.594;23.808;2022-09-09T13:44:33;95551.66;;;29.69
24160;BMP280;62385;41.594;23.808;2022-09-09T13:47:06;95540.25;;;29.76
24160;BMP280;62385;41.594;23.808;2022-09-09T13:49:41;95537.31;;;29.38
24160;BMP280;62385;41.594;23.808;2022-09-09T13:54:37;95534.56;;;27.90
24160;BMP280;62385;41.594;23.808;2022-09-09T13:57:03;95530.00;;;27.33
24160;BMP280;62385;41.594;23.808;2022-09-09T13:59:30;95532.81;;;27.15
24160;BMP280;62385;41.594;23.808;2022-09-09T14:01:55;95537.53;;;27.14
24160;BMP280;62385;41.594;23.808;2022-09-09T14:04:22;95536.84;;;26.94
24160;BMP280;62385;41.594;23.808;2022-09-09T14:06:49;95530.28;;;26.81
24160;BMP280;62385;41.594;23.808;2022-09-09T14:09:17;95523.41;;;27.18
24160;BMP280;62385;41.594;23.808;2022-09-09T14:11:44;95528.66;;;26.74
24160;BMP280;62385;41.594;23.808;2022-09-09T14:14:10;95532.50;;;26.87
24160;BMP280;62385;41.594;23.808;2022-09-09T14:16:36;95543.53;;;26.91
24160;BMP280;62385;41.594;23.808;2022-09-09T14:19:03;95539.38;;;27.08
24160;BMP280;62385;41.594;23.808;2022-09-09T14:21:29;95532.25;;;26.98
24160;BMP280;62385;41.594;23.808;2022-09-09T14:23:55;95527.44;;;26.97
24160;BMP280;62385;41.594;23.808;2022-09-09T14:26:23;95528.13;;;26.97
24160;BMP280;62385;41.594;23.808;2022-09-09T14:29:09;95523.81;;;26.90
24160;BMP280;62385;41.594;23.808;2022-09-09T14:31:34;95521.03;;;26.88
24160;BMP280;62385;41.594;23.808;2022-09-09T14:34:00;95532.16;;;26.76
24160;BMP280;62385;41.594;23.808;2022-09-09T14:36:26;95520.31;;;26.68
24160;BMP280;62385;41.594;23.808;2022-09-09T14:38:51;95527.56;;;26.81
24160;BMP280;62385;41.594;23.808;2022-09-09T14:41:18;95529.88;;;26.69
24160;BMP280;62385;41.594;23.808;2022-09-09T14:43:45;95528.97;;;26.82
24160;BMP280;62385;41.594;23.808;2022-09-09T14:46:15;95519.94;;;27.15
24160;BMP280;62385;41.594;23.808;2022-09-09T14:48:42;95531.41;;;26.94
24160;BMP280;62385;41.594;23.808;2022-09-09T14:51:22;95528.81;;;26.78
24160;BMP280;62385;41.594;23.808;2022-09-09T14:53:52;95522.69;;;26.77
24160;BMP280;62385;41.594;23.808;2022-09-09T14:56:19;95527.50;;;26.79
24160;BMP280;62385;41.594;23.808;2022-09-09T14:58:47;95517.00;;;26.69
24160;BMP280;62385;41.594;23.808;2022-09-09T15:01:15;95515.22;;;26.58
24160;BMP280;62385;41.594;23.808;2022-09-09T15:03:42;95513.22;;;26.59
24160;BMP280;62385;41.594;23.808;2022-09-09T15:06:13;95529.44;;;26.76
24160;BMP280;62385;41.594;23.808;2022-09-09T15:08:40;95521.94;;;27.35
24160;BMP280;62385;41.594;23.808;2022-09-09T15:11:07;95527.09;;;27.27
24160;BMP280;62385;41.594;23.808;2022-09-09T15:13:52;95515.66;;;27.30
24160;BMP280;62385;41.594;23.808;2022-09-09T15:16:23;95523.09;;;27.50
24160;BMP280;62385;41.594;23.808;2022-09-09T15:18:54;95525.28;;;27.33
24160;BMP280;62385;41.594;23.808;2022-09-09T15:21:23;95525.88;;;27.52
24160;BMP280;62385;41.594;23.808;2022-09-09T15:23:49;95525.63;;;27.65
24160;BMP280;62385;41.594;23.808;2022-09-09T15:26:15;95522.03;;;27.17
24160;BMP280;62385;41.594;23.808;2022-09-09T15:28:43;95520.34;;;26.88
24160;BMP280;62385;41.594;23.808;2022-09-09T15:31:12;95520.94;;;26.66
24160;BMP280;62385;41.594;23.808;2022-09-09T15:34:02;95514.28;;;26.51
24160;BMP280;62385;41.594;23.808;2022-09-09T15:36:31;95514.41;;;26.18
24160;BMP280;62385;41.594;23.808;2022-09-09T15:39:00;95519.59;;;26.12
24160;BMP280;62385;41.594;23.808;2022-09-09T15:41:26;95522.78;;;26.06
24160;BMP280;62385;41.594;23.808;2022-09-09T15:44:12;95521.47;;;26.07
24160;BMP280;62385;41.594;23.808;2022-09-09T15:46:40;95517.13;;;26.00
24160;BMP280;62385;41.594;23.808;2022-09-09T15:51:43;95508.00;;;26.09
24160;BMP280;62385;41.594;23.808;2022-09-09T15:54:11;95513.84;;;26.03
24160;BMP280;62385;41.594;23.808;2022-09-09T15:56:37;95509.91;;;26.24
24160;BMP280;62385;41.594;23.808;2022-09-09T15:59:03;95517.91;;;26.02
24160;BMP280;62385;41.594;23.808;2022-09-09T16:01:30;95514.22;;;26.31
24160;BMP280;62385;41.594;23.808;2022-09-09T16:03:57;95504.03;;;26.30
24160;BMP280;62385;41.594;23.808;2022-09-09T16:06:24;95496.69;;;26.15
24160;BMP280;62385;41.594;23.808;2022-09-09T16:08:52;95501.28;;;25.76
24160;BMP280;62385;41.594;23.808;2022-09-09T16:11:32;95520.38;;;25.62
24160;BMP280;62385;41.594;23.808;2022-09-09T16:13:59;95512.88;;;25.61
24160;BMP280;62385;41.594;23.808;2022-09-09T16:16:27;95519.28;;;25.52
24160;BMP280;62385;41.594;23.808;2022-09-09T16:18:55;95513.31;;;25.37
24160;BMP280;62385;41.594;23.808;2022-09-09T16:21:26;95519.06;;;25.30
24160;BMP280;62385;41.594;23.808;2022-09-09T16:23:56;95520.72;;;25.21
24160;BMP280;62385;41.594;23.808;2022-09-09T16:26:22;95522.31;;;25.10
24160;BMP280;62385;41.594;23.808;2022-09-09T16:28:49;95525.97;;;25.01
24160;BMP280;62385;41.594;23.808;2022-09-09T16:31:20;95511.47;;;24.94
24160;BMP280;62385;41.594;23.808;2022-09-09T16:33:47;95515.75;;;24.84
24160;BMP280;62385;41.594;23.808;2022-09-09T16:36:30;95510.41;;;24.70